This is the latest recevied weather packets stored in our database for station/object EA1HTW-13. If no packets are shown the sender has not sent any weather packets the latest 10 day(s).
| Time | Temp. | Humidity | Pressure | Rain* | Wind** | Luminosity | Snow |
|---|---|---|---|---|---|---|---|
| 1777393943 | 22.22° C | 52% | 1002.6 hPa | 0 mm | - | - | - |
| 1777393402 | 23.33° C | 52% | 1002.4 hPa | 0 mm | - | - | - |
| 1777392863 | 23.89° C | 50% | 1001.7 hPa | 0 mm | - | - | - |
| 1777392322 | 23.89° C | 50% | 1001.3 hPa | 0 mm | - | - | - |
| 1777391783 | 25.56° C | 47% | 1001 hPa | 0 mm | - | - | - |
| 1777391242 | 28.33° C | 41% | 1001 hPa | 0 mm | - | - | - |
| 1777390702 | 27.22° C | 44% | 1000.7 hPa | 0 mm | - | - | - |
| 1777390163 | 28.33° C | 39% | 1001.1 hPa | 0 mm | - | - | - |
| 1777389622 | 28.89° C | 39% | 1000.8 hPa | 0 mm | - | - | - |
| 1777389083 | 31.11° C | 35% | 1000.8 hPa | 0 mm | - | - | - |
| 1777388543 | 31.67° C | 35% | 1000.7 hPa | 0 mm | - | - | - |
| 1777388003 | 30.56° C | 36% | 1000.7 hPa | 0 mm | - | - | - |
| 1777387463 | 30.56° C | 36% | 1001 hPa | 0 mm | - | - | - |
| 1777386922 | 30° C | 36% | 1001.1 hPa | 0 mm | - | - | - |
| 1777386382 | 30.56° C | 36% | 1001.2 hPa | 0 mm | - | - | - |
| 1777385842 | 30.56° C | 36% | 1001.2 hPa | 0 mm | - | - | - |
| 1777385303 | 31.11° C | 35% | 1001.2 hPa | 0 mm | - | - | - |
| 1777384762 | 31.11° C | 36% | 1001 hPa | 0 mm | - | - | - |
| 1777384224 | 31.11° C | 34% | 1001 hPa | 0 mm | - | - | - |
| 1777383682 | 31.11° C | 35% | 1001.1 hPa | 0 mm | - | - | - |
| 1777383142 | 30° C | 35% | 1001.3 hPa | 0 mm | - | - | - |
| 1777382603 | 29.44° C | 38% | 1001.4 hPa | 0 mm | - | - | - |
| 1777382062 | 28.33° C | 38% | 1001.5 hPa | 0 mm | - | - | - |
| 1777381524 | 28.89° C | 39% | 1001.5 hPa | 0 mm | - | - | - |
| 1777380982 | 28.89° C | 40% | 1001.7 hPa | 0 mm | - | - | - |
* Rain latest hour (hover to see other rain measurements)
** Current wind speed in m/s (hover to see current wind gust speed)